Beecher, IL (60401)

7:25 PM CDT on April 24, 2015 (GMT -0500)
Prairie Crossing | | Change Station
CLOSE
Current Station
Personal Weather Station
Location: Beecher, IL
Elevation: 748 ft
Nearby Weather Stations

Elev 748 ft 41.35 °N, 87.62 °W | Updated 2 seconds ago

Overcast
Overcast
54.7 °F
Feels Like 54.7 °F
N
0.2
Wind Variable Wind from WSW
Gusts 2.5 mph

Today
High -- | Low -- °F
--% Chance of Precip.
Yesterday
High -- | Low -- °F
Precip. -- in
5:57 AM 7:40 PM
Waxing Crescent, 40% visible
Pressure 29.92 in
Visibility 10.0 miles
Clouds Overcast 8000 ft
Dew Point 26 °F
Humidity 33%
Rainfall 0.00 in
Snow Depth Not available.
UV 0.0 out of 12
Pollen 10.40 out of 12
Air Quality Not available.
Flu Activity Regional
METAR KIGQ 250015Z AUTO 04011KT 10SM OVC080 09/M06 A2992 RMK AO2 T00901056

More Conditions Fewer Conditions

Pressure 29.92 in
Visibility 10.0 miles
Clouds Overcast 8000 ft
Dew Point 26 °F
Humidity 33%
Rainfall 0.00 in
Snow Depth Not available.
UV 0.0 out of 12
Pollen 10.40 out of 12
Air Quality Not available.
Flu Activity Regional
METAR KIGQ 250015Z AUTO 04011KT 10SM OVC080 09/M06 A2992 RMK AO2 T00901056

More Conditions Fewer Conditions

10-Day Weather Forecast

Almanac

Astronomy

Apr. 24, 2015 Rise Set
Actual Time
Civil Twilight
Nautical Twilight
Astronomical Twilight
Moon
Length of Visible Light
Length of Day
Tomorrow will be .
, % of the Moon is Illuminated

Today's Extremes

State Highs State Lows

Community

WunderPhotos

Upload Photos

1,816,515 photos uploaded!

WunderBlogs® & News

Nearby

Air Quality

  Air Quality AQ Index Pollutant
Not available.

Snow Depth

Station Depth Elevation

Earthquake Activity

City Distance Mag. Time & Date
Minimum magnitude displayed is 2.5.

Coastal Water Temperatures

Place Temperature

Stations

Nearby Weather Stations

Station Location Temp. Windchill Dew Point Humidity Wind Precip. Elev Updated Type